Terminal Aerodrome Forecast
Issued by NWS

Home | Current Version | Previous Version | Graphics & Text | Print | Product List | Glossary On
Versions: 1 2 3 4 5 6 7 8 9 10 11 12 13 14 15 16 17 18 19 20 21 22 23 24 25 26 27 28 29 30 31 32 33 34
000
FTUS43 KLOT 281700 RRA
TAFORD
TAF
KORD 281742Z 2818/2924 09006KT P6SM SCT200
     FM282200 09010KT P6SM SCT080 BKN200
     FM290400 13007KT P6SM VCSH SCT050 BKN080
     FM290900 16007KT P6SM SHRA OVC050 PROB30 2910/2913 TSRA
      OVC040CB
     FM291400 19008KT P6SM BKN050
     FM291700 20013G20KT P6SM SCT060 BKN200 PROB30 2920/2924 5SM
      TSRA BR BKN050CB=

USA.gov is the U.S. government's official web portal to all federal, state and local government web resources and services.